createdAt,value
2023-12-03T00:00:15.078Z,70.84
2023-12-03T00:02:43.540Z,70.37
2023-12-03T00:05:10.794Z,73.16
2023-12-03T00:07:38.279Z,70.76
2023-12-03T00:10:05.667Z,70.92
2023-12-03T00:12:32.460Z,72.67
2023-12-03T00:14:59.747Z,69.91
2023-12-03T00:17:26.868Z,70.35
2023-12-03T00:19:53.966Z,69.84
2023-12-03T00:22:21.460Z,69.77
2023-12-03T00:24:48.636Z,69.89
2023-12-03T00:27:15.462Z,69.31
2023-12-03T00:29:42.456Z,70.93
2023-12-03T00:32:09.283Z,70.26
2023-12-03T00:34:36.281Z,68.96
2023-12-03T00:37:03.537Z,69.00
2023-12-03T00:39:30.629Z,68.43
2023-12-03T00:41:57.406Z,69.15
2023-12-03T00:44:24.238Z,68.46
2023-12-03T00:46:51.037Z,68.21
2023-12-03T00:49:18.054Z,68.04
2023-12-03T00:51:44.967Z,68.65
2023-12-03T00:54:12.100Z,68.18
2023-12-03T00:56:39.182Z,68.25
2023-12-03T00:59:06.165Z,69.44
2023-12-03T01:01:33.292Z,68.30
2023-12-03T01:04:00.619Z,68.57
2023-12-03T01:06:27.721Z,68.60
2023-12-03T01:08:54.870Z,68.16
2023-12-03T01:11:34.773Z,68.13
2023-12-03T01:14:04.720Z,68.58
2023-12-03T01:16:31.947Z,68.24
2023-12-03T01:18:58.815Z,68.20
2023-12-03T01:21:26.335Z,68.46
2023-12-03T01:23:53.472Z,69.14
2023-12-03T01:26:20.508Z,69.52
2023-12-03T01:28:47.295Z,68.65
2023-12-03T01:31:14.346Z,68.41
2023-12-03T01:33:41.253Z,68.89
2023-12-03T01:36:09.457Z,69.00
2023-12-03T01:38:36.419Z,67.96
2023-12-03T01:41:03.630Z,68.03
2023-12-03T01:43:31.485Z,68.81
2023-12-03T01:45:58.556Z,68.54
2023-12-03T01:48:27.591Z,69.59
2023-12-03T01:50:55.576Z,68.20
2023-12-03T01:53:23.201Z,70.96
2023-12-03T01:55:50.308Z,68.69
2023-12-03T01:58:17.560Z,68.77
2023-12-03T02:00:44.676Z,68.41
2023-12-03T02:03:11.689Z,69.10
2023-12-03T02:05:39.282Z,69.53
2023-12-03T02:08:06.439Z,68.25
2023-12-03T02:10:33.396Z,68.87
2023-12-03T02:13:00.533Z,70.76
2023-12-03T02:15:27.569Z,69.03
2023-12-03T02:17:54.632Z,68.85
2023-12-03T02:20:21.420Z,69.57
2023-12-03T02:23:01.450Z,69.25
2023-12-03T02:25:28.563Z,70.64
2023-12-03T02:27:55.621Z,67.86
2023-12-03T02:30:22.688Z,70.71
2023-12-03T02:32:49.916Z,67.87
2023-12-03T02:35:17.190Z,67.96
2023-12-03T02:37:44.030Z,69.97
2023-12-03T02:40:11.093Z,67.64
2023-12-03T02:42:37.915Z,67.93
2023-12-03T02:45:06.388Z,67.79
2023-12-03T02:47:33.489Z,67.95
2023-12-03T02:50:00.854Z,67.82
2023-12-03T02:52:27.995Z,67.67
2023-12-03T02:54:54.973Z,67.44
2023-12-03T02:57:21.790Z,67.65
2023-12-03T02:59:48.868Z,68.35
2023-12-03T03:02:15.932Z,67.00
2023-12-03T03:04:43.034Z,66.97
2023-12-03T03:07:09.820Z,66.94
2023-12-03T03:09:36.928Z,66.58
2023-12-03T03:12:03.952Z,66.29
2023-12-03T03:14:30.944Z,66.62
2023-12-03T03:16:57.732Z,66.46
2023-12-03T03:19:24.838Z,65.81
2023-12-03T03:21:52.001Z,66.02
2023-12-03T03:24:19.071Z,66.63
2023-12-03T03:26:45.826Z,66.42
2023-12-03T03:29:12.871Z,66.65
2023-12-03T03:31:39.729Z,67.45
2023-12-03T03:34:06.826Z,66.11
2023-12-03T03:36:33.666Z,66.44
2023-12-03T03:39:01.349Z,65.52
2023-12-03T03:41:28.095Z,65.92
2023-12-03T03:43:55.224Z,66.54
2023-12-03T03:46:21.987Z,65.63
2023-12-03T03:48:48.879Z,65.68
2023-12-03T03:51:15.769Z,66.14
2023-12-03T03:53:42.599Z,65.35
2023-12-03T03:56:10.068Z,65.31
2023-12-03T03:58:39.672Z,66.60
2023-12-03T04:01:08.786Z,65.99
2023-12-03T04:03:35.879Z,65.03
2023-12-03T04:06:07.042Z,64.72
2023-12-03T04:08:34.472Z,64.96
2023-12-03T04:11:08.299Z,64.91
2023-12-03T04:13:37.020Z,64.48
2023-12-03T04:16:03.860Z,64.78
2023-12-03T04:18:30.956Z,64.84
2023-12-03T04:20:57.783Z,65.43
2023-12-03T04:23:24.734Z,65.71
2023-12-03T04:25:51.789Z,65.03
2023-12-03T04:28:18.555Z,64.42
2023-12-03T04:30:45.378Z,65.17
2023-12-03T04:33:12.291Z,64.78
2023-12-03T04:35:39.356Z,64.60
2023-12-03T04:38:06.408Z,65.12
2023-12-03T04:40:33.241Z,64.67
2023-12-03T04:42:59.966Z,64.41
2023-12-03T04:45:27.072Z,64.22
2023-12-03T04:47:54.030Z,65.09
2023-12-03T04:50:21.068Z,66.35
2023-12-03T04:52:48.510Z,65.05
2023-12-03T04:55:15.338Z,65.03
2023-12-03T04:57:42.346Z,65.64
2023-12-03T05:00:10.366Z,65.32
2023-12-03T05:02:38.245Z,64.72
2023-12-03T05:05:06.632Z,65.82
2023-12-03T05:07:33.488Z,66.01
2023-12-03T05:10:00.415Z,65.59
2023-12-03T05:12:27.416Z,66.18
2023-12-03T05:14:54.296Z,65.80
2023-12-03T05:17:21.403Z,65.63
2023-12-03T05:19:48.429Z,65.23
2023-12-03T05:22:15.480Z,65.81
2023-12-03T05:24:42.365Z,65.79
2023-12-03T05:27:09.369Z,67.70
2023-12-03T05:29:36.358Z,65.97
2023-12-03T05:32:04.568Z,66.51
2023-12-03T05:34:31.413Z,66.31
2023-12-03T05:36:58.624Z,68.47
2023-12-03T05:39:25.746Z,67.34
2023-12-03T05:41:52.765Z,66.76
2023-12-03T05:44:19.707Z,69.65
2023-12-03T05:46:46.865Z,66.11
2023-12-03T05:49:14.192Z,66.84
2023-12-03T05:51:46.859Z,66.81
2023-12-03T05:54:13.829Z,66.03
2023-12-03T05:56:40.975Z,65.43
2023-12-03T05:59:08.048Z,65.27
2023-12-03T06:01:35.164Z,64.99
2023-12-03T06:04:07.532Z,64.64
2023-12-03T06:06:35.782Z,64.27
2023-12-03T06:09:04.444Z,64.02
2023-12-03T06:11:33.422Z,64.66
2023-12-03T06:14:00.380Z,64.34
2023-12-03T06:16:27.579Z,64.51
2023-12-03T06:18:54.665Z,64.27
2023-12-03T06:21:21.533Z,64.91
2023-12-03T06:23:48.807Z,65.32
2023-12-03T06:26:15.834Z,64.99
2023-12-03T06:28:42.681Z,65.39
2023-12-03T06:31:10.020Z,65.47
2023-12-03T06:33:37.217Z,65.21
2023-12-03T06:36:04.660Z,65.45
2023-12-03T06:38:31.620Z,65.39
2023-12-03T06:40:58.683Z,65.12
2023-12-03T06:43:25.754Z,64.73
2023-12-03T06:45:52.783Z,65.18
2023-12-03T06:48:20.196Z,64.84
2023-12-03T06:50:47.276Z,64.95
2023-12-03T06:53:14.325Z,65.02
2023-12-03T06:55:41.308Z,65.17
2023-12-03T06:58:08.169Z,64.82
2023-12-03T07:00:35.323Z,64.24
2023-12-03T07:03:02.457Z,64.11
2023-12-03T07:05:29.544Z,64.13
2023-12-03T07:07:56.686Z,63.43
2023-12-03T07:10:23.926Z,64.11
2023-12-03T07:12:51.093Z,64.09
2023-12-03T07:15:18.279Z,63.66
2023-12-03T07:17:45.384Z,63.13
2023-12-03T07:20:12.361Z,62.46
2023-12-03T07:22:40.678Z,62.56
2023-12-03T07:25:08.845Z,61.94
2023-12-03T07:27:35.713Z,60.42
2023-12-03T07:30:03.813Z,60.93
2023-12-03T07:32:30.663Z,59.07
2023-12-03T07:34:57.497Z,62.04
2023-12-03T07:37:24.310Z,59.69
2023-12-03T07:39:51.356Z,59.22
2023-12-03T07:42:18.491Z,61.70
2023-12-03T07:44:45.527Z,61.23
2023-12-03T07:47:12.558Z,59.90
2023-12-03T07:49:39.305Z,60.12
2023-12-03T07:52:06.576Z,57.97
2023-12-03T07:54:33.567Z,56.99
2023-12-03T07:57:00.618Z,55.66
2023-12-03T07:59:27.347Z,55.19
2023-12-03T08:01:55.034Z,54.40
2023-12-03T08:04:21.874Z,54.59
2023-12-03T08:06:49.240Z,53.50
2023-12-03T08:09:16.409Z,52.70
2023-12-03T08:11:43.467Z,52.74
2023-12-03T08:14:10.465Z,52.29
2023-12-03T08:16:37.279Z,51.70
2023-12-03T08:19:04.356Z,50.77
2023-12-03T08:21:33.951Z,50.09
2023-12-03T08:24:01.163Z,50.62
2023-12-03T08:26:28.272Z,51.20
2023-12-03T08:28:54.952Z,50.47
2023-12-03T08:31:23.932Z,50.31
2023-12-03T08:33:51.023Z,49.21
2023-12-03T08:36:19.778Z,49.95
2023-12-03T08:38:47.357Z,48.54
2023-12-03T08:41:14.869Z,47.72
2023-12-03T08:43:42.096Z,47.14
2023-12-03T08:46:09.257Z,50.51
2023-12-03T08:48:36.922Z,48.30
2023-12-03T08:51:04.165Z,46.47
2023-12-03T08:53:31.168Z,46.75
2023-12-03T08:56:00.613Z,46.00
2023-12-03T08:58:27.944Z,46.14
2023-12-03T09:00:55.311Z,45.67
2023-12-03T09:03:22.695Z,45.36
2023-12-03T09:05:49.533Z,45.97
2023-12-03T09:08:16.429Z,46.04
2023-12-03T09:10:43.600Z,45.01
2023-12-03T09:13:10.550Z,45.49
2023-12-03T09:15:37.752Z,45.21
2023-12-03T09:18:05.114Z,44.36
2023-12-03T09:20:32.342Z,42.84
2023-12-03T09:22:59.286Z,43.55
2023-12-03T09:25:26.283Z,42.37
2023-12-03T09:27:53.537Z,41.48
2023-12-03T09:30:20.610Z,42.41
2023-12-03T09:32:47.514Z,43.38
2023-12-03T09:35:14.604Z,43.04
2023-12-03T09:37:41.481Z,42.04
2023-12-03T09:40:08.754Z,42.96
2023-12-03T09:42:37.538Z,41.83
2023-12-03T09:45:05.579Z,41.87
2023-12-03T09:47:35.855Z,42.54
2023-12-03T09:50:04.126Z,42.13
2023-12-03T09:52:34.805Z,41.09
2023-12-03T09:55:02.251Z,41.76
2023-12-03T09:57:32.557Z,41.15
2023-12-03T10:00:02.615Z,41.17
2023-12-03T10:02:30.313Z,39.80
2023-12-03T10:04:58.124Z,40.08
2023-12-03T10:07:29.107Z,39.03
2023-12-03T10:09:59.615Z,38.09
2023-12-03T10:12:35.436Z,38.30
2023-12-03T10:15:02.263Z,38.30
2023-12-03T10:17:29.105Z,40.83
2023-12-03T10:19:56.221Z,38.57
2023-12-03T10:22:41.473Z,36.92
2023-12-03T10:25:08.653Z,37.99
2023-12-03T10:27:35.446Z,36.87
2023-12-03T10:30:02.780Z,37.37
2023-12-03T10:32:29.905Z,38.42
2023-12-03T10:34:58.098Z,37.64
2023-12-03T10:37:25.183Z,37.83
2023-12-03T10:39:51.934Z,37.38
2023-12-03T10:42:18.721Z,38.01
2023-12-03T10:44:45.671Z,36.86
2023-12-03T10:47:14.074Z,38.16
2023-12-03T10:49:41.361Z,37.73
2023-12-03T10:52:08.382Z,38.62
2023-12-03T10:54:35.375Z,38.26
2023-12-03T10:57:02.676Z,38.64
2023-12-03T10:59:33.972Z,39.96
2023-12-03T11:02:04.786Z,40.95
2023-12-03T11:04:42.941Z,41.76
2023-12-03T11:07:13.422Z,42.31
2023-12-03T11:09:45.672Z,44.86
2023-12-03T11:12:16.979Z,45.17
2023-12-03T11:14:44.512Z,45.13
2023-12-03T11:17:31.695Z,46.69
2023-12-03T11:20:07.085Z,46.25
2023-12-03T11:23:07.097Z,46.77
2023-12-03T11:25:47.218Z,48.02
2023-12-03T11:28:13.985Z,47.39
2023-12-03T11:30:43.418Z,47.76
2023-12-03T11:33:14.339Z,49.09
2023-12-03T11:35:43.482Z,49.92
2023-12-03T11:38:22.707Z,50.72
2023-12-03T11:40:50.839Z,50.58
2023-12-03T11:43:25.597Z,50.84
2023-12-03T11:45:52.932Z,50.52
2023-12-03T11:48:21.141Z,51.05
2023-12-03T11:50:49.402Z,49.09
2023-12-03T11:53:17.757Z,47.53
2023-12-03T11:55:46.880Z,46.79
2023-12-03T11:58:14.904Z,43.39
2023-12-03T12:00:42.487Z,41.33
2023-12-03T12:03:09.873Z,40.89
2023-12-03T12:05:46.715Z,40.43
2023-12-03T12:08:24.252Z,41.19
2023-12-03T12:10:54.588Z,42.13
2023-12-03T12:13:23.740Z,43.16
2023-12-03T12:15:51.373Z,43.39
2023-12-03T12:18:21.235Z,43.72
2023-12-03T12:20:48.629Z,43.74
2023-12-03T12:23:16.130Z,43.31
2023-12-03T12:25:43.263Z,45.11
2023-12-03T12:28:10.249Z,44.77
2023-12-03T12:30:40.269Z,44.09
2023-12-03T12:33:07.718Z,40.85
2023-12-03T12:35:34.945Z,38.98
2023-12-03T12:38:03.610Z,38.30
2023-12-03T12:40:34.151Z,39.98
2023-12-03T12:43:07.478Z,39.11
2023-12-03T12:45:34.481Z,39.25
2023-12-03T12:48:02.170Z,40.15
2023-12-03T12:50:36.571Z,41.80
2023-12-03T12:53:05.222Z,42.32
2023-12-03T12:55:33.104Z,42.97
2023-12-03T12:58:05.766Z,42.52
2023-12-03T13:00:34.072Z,42.80
2023-12-03T13:03:01.235Z,42.25
2023-12-03T13:05:28.227Z,41.11
2023-12-03T13:07:55.461Z,40.05
2023-12-03T13:10:23.146Z,40.32
2023-12-03T13:12:50.639Z,39.82
2023-12-03T13:15:19.032Z,39.22
2023-12-03T13:17:51.008Z,38.53
2023-12-03T13:20:17.965Z,37.59
2023-12-03T13:22:50.345Z,37.25
2023-12-03T13:25:18.242Z,37.27
2023-12-03T13:27:45.521Z,37.32
2023-12-03T13:30:12.540Z,38.81
2023-12-03T13:32:41.560Z,40.44
2023-12-03T13:35:10.043Z,43.56
2023-12-03T13:37:37.518Z,45.12
2023-12-03T13:40:05.924Z,46.65
2023-12-03T13:42:33.263Z,47.87
2023-12-03T13:45:02.841Z,48.39
2023-12-03T13:47:30.668Z,49.35
2023-12-03T13:49:57.526Z,49.62
2023-12-03T13:52:24.422Z,49.98
2023-12-03T13:54:51.390Z,50.93
2023-12-03T13:57:18.422Z,51.76
2023-12-03T13:59:45.247Z,51.98
2023-12-03T14:02:12.365Z,52.79
2023-12-03T14:04:39.349Z,53.11
2023-12-03T14:07:06.653Z,53.29
2023-12-03T14:09:34.100Z,53.35
2023-12-03T14:12:05.356Z,54.05
2023-12-03T14:14:32.402Z,54.15
2023-12-03T14:17:01.114Z,54.61
2023-12-03T14:19:28.009Z,54.91
2023-12-03T14:21:54.809Z,55.51
2023-12-03T14:24:22.256Z,55.63
2023-12-03T14:26:49.080Z,56.24
2023-12-03T14:29:16.064Z,56.36
2023-12-03T14:31:43.320Z,56.54
2023-12-03T14:34:10.528Z,56.44
2023-12-03T14:36:37.702Z,56.62
2023-12-03T14:39:05.245Z,57.21
2023-12-03T14:41:32.415Z,57.30
2023-12-03T14:43:59.808Z,57.21
2023-12-03T14:46:26.680Z,57.38
2023-12-03T14:48:53.996Z,57.53
2023-12-03T14:51:21.991Z,56.98
2023-12-03T14:53:49.776Z,57.01
2023-12-03T14:56:28.325Z,57.53
2023-12-03T14:58:56.640Z,57.83
2023-12-03T15:01:31.894Z,57.73
2023-12-03T15:03:59.267Z,58.51
2023-12-03T15:06:26.679Z,58.43
2023-12-03T15:08:54.166Z,58.36
2023-12-03T15:11:21.368Z,58.68
2023-12-03T15:13:48.514Z,58.16
2023-12-03T15:16:15.881Z,57.70
2023-12-03T15:18:46.054Z,58.50
2023-12-03T15:21:13.208Z,58.28
2023-12-03T15:23:41.662Z,58.51
2023-12-03T15:26:10.349Z,58.43
2023-12-03T15:28:37.351Z,58.31
2023-12-03T15:31:04.925Z,58.66
2023-12-03T15:33:32.046Z,58.35
2023-12-03T15:35:58.978Z,57.80
2023-12-03T15:38:25.754Z,57.97
2023-12-03T15:40:55.108Z,57.70
2023-12-03T15:43:30.102Z,56.82
2023-12-03T15:46:05.548Z,56.80
2023-12-03T15:48:33.348Z,57.19
2023-12-03T15:51:00.555Z,57.07
2023-12-03T15:53:27.802Z,57.52
2023-12-03T15:55:56.866Z,56.90
2023-12-03T15:58:25.662Z,57.36
2023-12-03T16:00:53.494Z,57.81
2023-12-03T16:03:21.610Z,58.39
2023-12-03T16:05:49.220Z,58.06
2023-12-03T16:08:16.630Z,57.68
2023-12-03T16:10:43.804Z,58.34
2023-12-03T16:13:10.702Z,57.53
2023-12-03T16:15:37.477Z,57.24
2023-12-03T16:18:04.627Z,56.90
2023-12-03T16:20:31.856Z,56.89
2023-12-03T16:22:59.046Z,57.21
2023-12-03T16:25:25.933Z,56.77
2023-12-03T16:27:53.012Z,56.70
2023-12-03T16:30:19.874Z,56.29
2023-12-03T16:32:46.943Z,56.27
2023-12-03T16:35:14.026Z,56.29
2023-12-03T16:37:41.437Z,56.12
2023-12-03T16:40:09.924Z,55.21
2023-12-03T16:42:37.116Z,55.79
2023-12-03T16:45:05.323Z,55.28
2023-12-03T16:47:32.366Z,55.31
2023-12-03T16:50:01.668Z,55.14
2023-12-03T16:52:30.355Z,55.25
2023-12-03T16:54:57.556Z,55.18
2023-12-03T16:57:24.491Z,55.08
2023-12-03T16:59:51.684Z,55.58
2023-12-03T17:02:18.682Z,55.78
2023-12-03T17:04:45.924Z,55.90
2023-12-03T17:07:13.317Z,55.83
2023-12-03T17:09:40.299Z,55.91
2023-12-03T17:12:07.317Z,56.50
2023-12-03T17:14:34.423Z,56.39
2023-12-03T17:17:02.029Z,57.18
2023-12-03T17:19:29.374Z,56.97
2023-12-03T17:21:59.115Z,56.99
2023-12-03T17:24:26.221Z,56.74
2023-12-03T17:26:56.187Z,57.20
2023-12-03T17:29:22.993Z,56.97
2023-12-03T17:31:49.878Z,57.47
2023-12-03T17:34:17.115Z,58.00
2023-12-03T17:36:44.020Z,58.09
2023-12-03T17:39:11.301Z,57.96
2023-12-03T17:41:38.295Z,58.28
2023-12-03T17:44:06.331Z,58.36
2023-12-03T17:46:33.414Z,58.55
2023-12-03T17:49:00.540Z,58.67
2023-12-03T17:51:28.647Z,58.50
2023-12-03T17:53:55.874Z,58.75
2023-12-03T17:56:22.992Z,59.42
2023-12-03T17:58:49.964Z,59.27
2023-12-03T18:01:19.304Z,59.29
2023-12-03T18:03:48.204Z,59.29
2023-12-03T18:06:15.343Z,59.49
2023-12-03T18:08:42.579Z,59.97
2023-12-03T18:11:09.689Z,59.96
2023-12-03T18:13:36.893Z,59.83
2023-12-03T18:16:06.842Z,59.83
2023-12-03T18:18:34.145Z,60.28
2023-12-03T18:21:01.312Z,59.95
2023-12-03T18:23:28.678Z,60.54
2023-12-03T18:25:56.542Z,60.67
2023-12-03T18:28:23.522Z,60.51
2023-12-03T18:30:50.625Z,60.86
2023-12-03T18:33:20.291Z,60.51
2023-12-03T18:35:47.219Z,60.64
2023-12-03T18:38:14.252Z,60.45
2023-12-03T18:40:44.369Z,60.60
2023-12-03T18:43:11.910Z,60.52
2023-12-03T18:45:39.101Z,60.01
2023-12-03T18:48:06.268Z,60.34
2023-12-03T18:50:33.377Z,60.98
2023-12-03T18:53:00.512Z,60.50
2023-12-03T18:55:27.512Z,60.43
2023-12-03T18:57:54.618Z,60.22
2023-12-03T19:00:22.026Z,60.71
2023-12-03T19:02:49.943Z,60.15
2023-12-03T19:05:17.216Z,60.08
2023-12-03T19:07:50.411Z,60.05
2023-12-03T19:10:19.728Z,60.54
2023-12-03T19:12:51.061Z,60.21
2023-12-03T19:15:22.874Z,59.61
2023-12-03T19:17:49.929Z,60.18
2023-12-03T19:20:17.063Z,59.85
2023-12-03T19:22:43.907Z,60.74
2023-12-03T19:25:10.756Z,60.42
2023-12-03T19:27:37.587Z,60.69
2023-12-03T19:30:07.504Z,59.80
2023-12-03T19:32:34.517Z,60.46
2023-12-03T19:35:01.429Z,61.21
2023-12-03T19:37:28.369Z,60.87
2023-12-03T19:39:55.364Z,61.23
2023-12-03T19:42:22.384Z,61.46
2023-12-03T19:44:50.076Z,61.40
2023-12-03T19:47:17.181Z,62.30
2023-12-03T19:49:44.417Z,62.11
2023-12-03T19:52:11.454Z,62.10
2023-12-03T19:54:38.339Z,62.37
2023-12-03T19:57:06.133Z,62.94
2023-12-03T19:59:33.077Z,62.81
2023-12-03T20:02:00.150Z,62.76
2023-12-03T20:04:27.525Z,63.09
2023-12-03T20:06:56.318Z,63.07
2023-12-03T20:09:23.468Z,63.65
2023-12-03T20:11:50.571Z,63.38
2023-12-03T20:14:17.523Z,63.44
2023-12-03T20:16:44.595Z,63.10
2023-12-03T20:19:11.591Z,63.44
2023-12-03T20:21:41.272Z,63.54
2023-12-03T20:24:08.529Z,63.79
2023-12-03T20:26:36.575Z,64.05
2023-12-03T20:29:03.480Z,64.18
2023-12-03T20:31:33.302Z,63.83
2023-12-03T20:34:01.165Z,64.37
2023-12-03T20:36:28.155Z,64.35
2023-12-03T20:38:56.056Z,65.57
2023-12-03T20:41:23.874Z,65.68
2023-12-03T20:43:51.518Z,65.53
2023-12-03T20:46:19.143Z,66.01
2023-12-03T20:48:46.333Z,66.32
2023-12-03T20:51:14.269Z,66.41
2023-12-03T20:53:41.669Z,67.20
2023-12-03T20:56:10.299Z,66.82
2023-12-03T20:58:37.369Z,67.30
2023-12-03T21:01:04.385Z,67.57
2023-12-03T21:03:31.700Z,67.78
2023-12-03T21:05:59.036Z,68.30
2023-12-03T21:08:26.015Z,68.30
2023-12-03T21:10:52.798Z,68.49
2023-12-03T21:13:20.729Z,68.71
2023-12-03T21:15:47.924Z,68.62
2023-12-03T21:18:14.762Z,68.59
2023-12-03T21:20:41.624Z,67.77
2023-12-03T21:23:08.696Z,67.37
2023-12-03T21:25:35.703Z,67.63
2023-12-03T21:28:02.711Z,67.18
2023-12-03T21:30:30.682Z,67.78
2023-12-03T21:32:58.518Z,67.29
2023-12-03T21:35:25.793Z,67.66
2023-12-03T21:37:54.681Z,68.25
2023-12-03T21:40:21.730Z,68.56
2023-12-03T21:42:48.496Z,68.64
2023-12-03T21:45:15.364Z,69.74
2023-12-03T21:47:42.276Z,69.20
2023-12-03T21:50:09.792Z,68.73
2023-12-03T21:52:36.596Z,68.87
2023-12-03T21:55:04.092Z,69.21
2023-12-03T21:57:31.282Z,69.21
2023-12-03T21:59:58.380Z,68.94
2023-12-03T22:02:25.888Z,69.14
2023-12-03T22:04:53.862Z,69.31
2023-12-03T22:07:20.952Z,69.70
2023-12-03T22:09:47.903Z,69.53
2023-12-03T22:12:14.980Z,69.26
2023-12-03T22:14:42.123Z,69.08
2023-12-03T22:17:09.198Z,69.33
2023-12-03T22:19:36.262Z,68.89
2023-12-03T22:22:03.299Z,68.35
2023-12-03T22:24:30.645Z,69.01
2023-12-03T22:26:57.453Z,69.54
2023-12-03T22:29:31.196Z,69.98
2023-12-03T22:32:06.526Z,69.48
2023-12-03T22:34:33.626Z,68.69
2023-12-03T22:37:00.836Z,68.96
2023-12-03T22:39:27.964Z,68.95
2023-12-03T22:41:55.139Z,69.45
2023-12-03T22:44:22.095Z,69.51
2023-12-03T22:46:49.119Z,68.92
2023-12-03T22:49:17.873Z,68.89
2023-12-03T22:51:44.920Z,68.39
2023-12-03T22:54:11.956Z,68.97
2023-12-03T22:56:38.660Z,69.08
2023-12-03T22:59:05.431Z,70.08
2023-12-03T23:01:32.545Z,69.55
2023-12-03T23:03:59.731Z,69.16
2023-12-03T23:06:26.528Z,69.41
2023-12-03T23:08:54.750Z,68.91
2023-12-03T23:11:21.848Z,69.25
2023-12-03T23:13:48.674Z,69.15
2023-12-03T23:16:15.550Z,69.63
2023-12-03T23:18:42.750Z,69.06
2023-12-03T23:21:09.595Z,69.69
2023-12-03T23:23:36.623Z,68.77
2023-12-03T23:26:03.484Z,69.33
2023-12-03T23:28:30.512Z,69.14
2023-12-03T23:30:58.912Z,69.05
2023-12-03T23:33:26.124Z,69.25
2023-12-03T23:35:53.257Z,69.81
2023-12-03T23:38:20.250Z,69.66
2023-12-03T23:40:46.952Z,69.63
2023-12-03T23:43:14.053Z,69.51
2023-12-03T23:45:40.973Z,70.21
2023-12-03T23:48:08.206Z,69.63
2023-12-03T23:50:35.221Z,70.17
2023-12-03T23:53:02.137Z,70.00
2023-12-03T23:55:29.165Z,69.40
2023-12-03T23:57:57.687Z,70.15
